sensor_id;sensor_type;location;lat;lon;timestamp;temperature;humidity
18506;DHT22;9382;53.242;10.438;2024-01-10T00:00:12;-7.40;99.90
18506;DHT22;9382;53.242;10.438;2024-01-10T00:02:39;-7.40;99.90
18506;DHT22;9382;53.242;10.438;2024-01-10T00:05:08;-7.40;99.90
18506;DHT22;9382;53.242;10.438;2024-01-10T00:07:35;-7.40;99.90
18506;DHT22;9382;53.242;10.438;2024-01-10T00:10:05;-7.50;99.90
18506;DHT22;9382;53.242;10.438;2024-01-10T00:12:32;-7.50;99.90
18506;DHT22;9382;53.242;10.438;2024-01-10T00:15:02;-7.60;99.90
18506;DHT22;9382;53.242;10.438;2024-01-10T00:17:30;-7.60;99.90
18506;DHT22;9382;53.242;10.438;2024-01-10T00:20:02;-7.70;99.90
18506;DHT22;9382;53.242;10.438;2024-01-10T00:22:33;-7.70;99.90
18506;DHT22;9382;53.242;10.438;2024-01-10T00:25:00;-7.70;99.90
18506;DHT22;9382;53.242;10.438;2024-01-10T00:27:31;-7.60;99.90
18506;DHT22;9382;53.242;10.438;2024-01-10T00:29:59;-7.60;99.90
18506;DHT22;9382;53.242;10.438;2024-01-10T00:32:28;-7.60;99.90
18506;DHT22;9382;53.242;10.438;2024-01-10T00:34:58;-7.60;99.90
18506;DHT22;9382;53.242;10.438;2024-01-10T00:37:32;-7.70;99.90
18506;DHT22;9382;53.242;10.438;2024-01-10T00:40:03;-7.70;99.90
18506;DHT22;9382;53.242;10.438;2024-01-10T00:42:31;-7.80;99.90
18506;DHT22;9382;53.242;10.438;2024-01-10T00:44:58;-7.80;99.90
18506;DHT22;9382;53.242;10.438;2024-01-10T00:47:27;-7.80;99.90
18506;DHT22;9382;53.242;10.438;2024-01-10T00:49:56;-7.90;99.90
18506;DHT22;9382;53.242;10.438;2024-01-10T00:52:25;-7.80;99.90
18506;DHT22;9382;53.242;10.438;2024-01-10T00:54:57;-7.70;99.90
18506;DHT22;9382;53.242;10.438;2024-01-10T00:57:24;-7.70;99.90
18506;DHT22;9382;53.242;10.438;2024-01-10T00:59:57;-7.70;99.90
18506;DHT22;9382;53.242;10.438;2024-01-10T01:02:29;-7.70;99.90
18506;DHT22;9382;53.242;10.438;2024-01-10T01:04:57;-7.80;99.90
18506;DHT22;9382;53.242;10.438;2024-01-10T01:07:24;-7.90;99.90
18506;DHT22;9382;53.242;10.438;2024-01-10T01:09:51;-8.00;99.90
18506;DHT22;9382;53.242;10.438;2024-01-10T01:12:19;-8.00;99.90
18506;DHT22;9382;53.242;10.438;2024-01-10T01:14:46;-8.00;99.90
18506;DHT22;9382;53.242;10.438;2024-01-10T01:17:21;-8.00;99.90
18506;DHT22;9382;53.242;10.438;2024-01-10T01:19:49;-8.00;99.90
18506;DHT22;9382;53.242;10.438;2024-01-10T01:22:16;-8.10;99.90
18506;DHT22;9382;53.242;10.438;2024-01-10T01:24:43;-8.10;99.90
18506;DHT22;9382;53.242;10.438;2024-01-10T01:27:12;-8.10;99.90
18506;DHT22;9382;53.242;10.438;2024-01-10T01:29:41;-8.00;99.90
18506;DHT22;9382;53.242;10.438;2024-01-10T01:32:09;-8.00;99.90
18506;DHT22;9382;53.242;10.438;2024-01-10T01:34:39;-7.90;99.90
18506;DHT22;9382;53.242;10.438;2024-01-10T01:37:08;-7.90;99.90
18506;DHT22;9382;53.242;10.438;2024-01-10T01:39:40;-7.90;99.90
18506;DHT22;9382;53.242;10.438;2024-01-10T01:42:09;-7.80;99.90
18506;DHT22;9382;53.242;10.438;2024-01-10T01:44:36;-7.90;99.90
18506;DHT22;9382;53.242;10.438;2024-01-10T01:49:10;-7.90;99.90
18506;DHT22;9382;53.242;10.438;2024-01-10T01:49:57;-7.80;99.90
18506;DHT22;9382;53.242;10.438;2024-01-10T01:52:29;-7.90;99.90
18506;DHT22;9382;53.242;10.438;2024-01-10T01:54:59;-7.90;99.90
18506;DHT22;9382;53.242;10.438;2024-01-10T01:57:26;-8.00;99.90
18506;DHT22;9382;53.242;10.438;2024-01-10T01:59:53;-8.00;99.90
18506;DHT22;9382;53.242;10.438;2024-01-10T02:02:44;-7.90;99.90
18506;DHT22;9382;53.242;10.438;2024-01-10T02:05:11;-7.90;99.90
18506;DHT22;9382;53.242;10.438;2024-01-10T02:07:44;-8.00;99.90
18506;DHT22;9382;53.242;10.438;2024-01-10T02:10:11;-8.00;99.90
18506;DHT22;9382;53.242;10.438;2024-01-10T02:12:41;-8.10;99.90
18506;DHT22;9382;53.242;10.438;2024-01-10T02:15:08;-8.10;99.90
18506;DHT22;9382;53.242;10.438;2024-01-10T02:17:43;-8.10;99.90
18506;DHT22;9382;53.242;10.438;2024-01-10T02:20:11;-8.20;99.90
18506;DHT22;9382;53.242;10.438;2024-01-10T02:22:41;-8.20;99.90
18506;DHT22;9382;53.242;10.438;2024-01-10T02:25:12;-8.20;99.90
18506;DHT22;9382;53.242;10.438;2024-01-10T02:27:42;-8.30;99.90
18506;DHT22;9382;53.242;10.438;2024-01-10T02:30:29;-8.30;99.90
18506;DHT22;9382;53.242;10.438;2024-01-10T02:32:57;-8.20;99.90
18506;DHT22;9382;53.242;10.438;2024-01-10T02:35:24;-8.20;99.90
18506;DHT22;9382;53.242;10.438;2024-01-10T02:37:52;-8.20;99.90
18506;DHT22;9382;53.242;10.438;2024-01-10T02:40:21;-8.20;99.90
18506;DHT22;9382;53.242;10.438;2024-01-10T02:42:50;-8.20;99.90
18506;DHT22;9382;53.242;10.438;2024-01-10T02:45:23;-8.20;99.90
18506;DHT22;9382;53.242;10.438;2024-01-10T02:47:52;-8.30;99.90
18506;DHT22;9382;53.242;10.438;2024-01-10T02:50:22;-8.20;99.90
18506;DHT22;9382;53.242;10.438;2024-01-10T02:52:52;-8.30;99.90
18506;DHT22;9382;53.242;10.438;2024-01-10T02:55:19;-8.20;99.90
18506;DHT22;9382;53.242;10.438;2024-01-10T02:57:47;-8.30;99.90
18506;DHT22;9382;53.242;10.438;2024-01-10T03:00:15;-8.20;99.90
18506;DHT22;9382;53.242;10.438;2024-01-10T03:02:46;-8.20;99.90
18506;DHT22;9382;53.242;10.438;2024-01-10T03:05:15;-8.10;99.90
18506;DHT22;9382;53.242;10.438;2024-01-10T03:07:42;-8.10;99.90
18506;DHT22;9382;53.242;10.438;2024-01-10T03:10:09;-8.10;99.90
18506;DHT22;9382;53.242;10.438;2024-01-10T03:12:36;-8.10;99.90
18506;DHT22;9382;53.242;10.438;2024-01-10T03:15:06;-8.20;99.90
18506;DHT22;9382;53.242;10.438;2024-01-10T03:17:36;-8.30;99.90
18506;DHT22;9382;53.242;10.438;2024-01-10T03:20:03;-8.30;99.90
18506;DHT22;9382;53.242;10.438;2024-01-10T03:22:34;-8.30;99.90
18506;DHT22;9382;53.242;10.438;2024-01-10T03:25:02;-8.20;99.90
18506;DHT22;9382;53.242;10.438;2024-01-10T03:27:30;-8.20;99.90
18506;DHT22;9382;53.242;10.438;2024-01-10T03:29:58;-8.10;99.90
18506;DHT22;9382;53.242;10.438;2024-01-10T03:32:27;-8.20;99.90
18506;DHT22;9382;53.242;10.438;2024-01-10T03:34:54;-8.10;99.90
18506;DHT22;9382;53.242;10.438;2024-01-10T03:37:23;-8.10;99.90
18506;DHT22;9382;53.242;10.438;2024-01-10T03:40:02;-8.00;99.90
18506;DHT22;9382;53.242;10.438;2024-01-10T03:42:40;-8.00;99.90
18506;DHT22;9382;53.242;10.438;2024-01-10T03:45:11;-8.10;99.90
18506;DHT22;9382;53.242;10.438;2024-01-10T03:47:44;-8.00;99.90
18506;DHT22;9382;53.242;10.438;2024-01-10T03:50:18;-8.00;99.90
18506;DHT22;9382;53.242;10.438;2024-01-10T03:52:47;-8.00;99.90
18506;DHT22;9382;53.242;10.438;2024-01-10T03:55:14;-7.90;99.90
18506;DHT22;9382;53.242;10.438;2024-01-10T03:57:44;-7.90;99.90
18506;DHT22;9382;53.242;10.438;2024-01-10T04:00:12;-7.90;99.90
18506;DHT22;9382;53.242;10.438;2024-01-10T04:02:46;-7.90;99.90
18506;DHT22;9382;53.242;10.438;2024-01-10T04:05:15;-8.00;99.90
18506;DHT22;9382;53.242;10.438;2024-01-10T04:07:44;-8.10;99.90
18506;DHT22;9382;53.242;10.438;2024-01-10T04:10:13;-8.10;99.90
18506;DHT22;9382;53.242;10.438;2024-01-10T04:12:43;-8.10;99.90
18506;DHT22;9382;53.242;10.438;2024-01-10T04:15:12;-8.20;99.90
18506;DHT22;9382;53.242;10.438;2024-01-10T04:17:44;-8.20;99.90
18506;DHT22;9382;53.242;10.438;2024-01-10T04:20:17;-8.20;99.90
18506;DHT22;9382;53.242;10.438;2024-01-10T04:22:46;-8.20;99.90
18506;DHT22;9382;53.242;10.438;2024-01-10T04:25:15;-8.20;99.90
18506;DHT22;9382;53.242;10.438;2024-01-10T04:27:58;-8.20;99.90
18506;DHT22;9382;53.242;10.438;2024-01-10T04:30:26;-8.20;99.90
18506;DHT22;9382;53.242;10.438;2024-01-10T04:32:59;-8.20;99.90
18506;DHT22;9382;53.242;10.438;2024-01-10T04:35:31;-8.20;99.90
18506;DHT22;9382;53.242;10.438;2024-01-10T04:37:58;-8.30;99.90
18506;DHT22;9382;53.242;10.438;2024-01-10T04:40:26;-8.30;99.90
18506;DHT22;9382;53.242;10.438;2024-01-10T04:42:56;-8.30;99.90
18506;DHT22;9382;53.242;10.438;2024-01-10T04:45:23;-8.30;99.90
18506;DHT22;9382;53.242;10.438;2024-01-10T04:47:51;-8.20;99.90
18506;DHT22;9382;53.242;10.438;2024-01-10T04:50:21;-8.30;99.90
18506;DHT22;9382;53.242;10.438;2024-01-10T04:52:50;-8.30;99.90
18506;DHT22;9382;53.242;10.438;2024-01-10T04:55:17;-8.20;99.90
18506;DHT22;9382;53.242;10.438;2024-01-10T04:57:44;-8.20;99.90
18506;DHT22;9382;53.242;10.438;2024-01-10T05:00:16;-8.20;99.90
18506;DHT22;9382;53.242;10.438;2024-01-10T05:02:43;-8.10;99.90
18506;DHT22;9382;53.242;10.438;2024-01-10T05:05:12;-8.10;99.90
18506;DHT22;9382;53.242;10.438;2024-01-10T05:07:42;-8.10;99.90
18506;DHT22;9382;53.242;10.438;2024-01-10T05:10:18;-8.20;99.90
18506;DHT22;9382;53.242;10.438;2024-01-10T05:12:49;-8.30;99.90
18506;DHT22;9382;53.242;10.438;2024-01-10T05:15:24;-8.30;99.90
18506;DHT22;9382;53.242;10.438;2024-01-10T05:17:59;-8.30;99.90
18506;DHT22;9382;53.242;10.438;2024-01-10T05:20:28;-8.30;99.90
18506;DHT22;9382;53.242;10.438;2024-01-10T05:22:55;-8.30;99.90
18506;DHT22;9382;53.242;10.438;2024-01-10T05:25:33;-8.20;99.90
18506;DHT22;9382;53.242;10.438;2024-01-10T05:30:40;-8.20;99.90
18506;DHT22;9382;53.242;10.438;2024-01-10T05:33:10;-8.20;99.90
18506;DHT22;9382;53.242;10.438;2024-01-10T05:35:44;-8.30;99.90
18506;DHT22;9382;53.242;10.438;2024-01-10T05:38:16;-8.30;99.90
18506;DHT22;9382;53.242;10.438;2024-01-10T05:40:57;-8.30;99.90
18506;DHT22;9382;53.242;10.438;2024-01-10T05:43:24;-8.30;99.90
18506;DHT22;9382;53.242;10.438;2024-01-10T05:45:59;-8.30;99.90
18506;DHT22;9382;53.242;10.438;2024-01-10T05:48:32;-8.20;99.90
18506;DHT22;9382;53.242;10.438;2024-01-10T05:51:01;-8.20;99.90
18506;DHT22;9382;53.242;10.438;2024-01-10T05:53:28;-8.10;99.90
18506;DHT22;9382;53.242;10.438;2024-01-10T05:56:00;-8.10;99.90
18506;DHT22;9382;53.242;10.438;2024-01-10T05:58:36;-8.10;99.90
18506;DHT22;9382;53.242;10.438;2024-01-10T06:01:06;-8.10;99.90
18506;DHT22;9382;53.242;10.438;2024-01-10T06:03:36;-8.20;99.90
18506;DHT22;9382;53.242;10.438;2024-01-10T06:06:04;-8.20;99.90
18506;DHT22;9382;53.242;10.438;2024-01-10T06:08:35;-8.20;99.90
18506;DHT22;9382;53.242;10.438;2024-01-10T06:11:12;-8.20;99.90
18506;DHT22;9382;53.242;10.438;2024-01-10T06:13:39;-8.20;99.90
18506;DHT22;9382;53.242;10.438;2024-01-10T06:16:10;-8.20;99.90
18506;DHT22;9382;53.242;10.438;2024-01-10T06:18:46;-8.10;99.90
18506;DHT22;9382;53.242;10.438;2024-01-10T06:21:14;-8.10;99.90
18506;DHT22;9382;53.242;10.438;2024-01-10T06:23:43;-8.10;99.90
18506;DHT22;9382;53.242;10.438;2024-01-10T06:26:14;-8.10;99.90
18506;DHT22;9382;53.242;10.438;2024-01-10T06:28:43;-8.10;99.90
18506;DHT22;9382;53.242;10.438;2024-01-10T06:31:12;-8.10;99.90
18506;DHT22;9382;53.242;10.438;2024-01-10T06:33:40;-8.10;99.90
18506;DHT22;9382;53.242;10.438;2024-01-10T06:36:10;-8.10;99.90
18506;DHT22;9382;53.242;10.438;2024-01-10T06:38:46;-8.20;99.90
18506;DHT22;9382;53.242;10.438;2024-01-10T06:41:17;-8.20;99.90
18506;DHT22;9382;53.242;10.438;2024-01-10T06:43:46;-8.20;99.90
18506;DHT22;9382;53.242;10.438;2024-01-10T06:46:16;-8.20;99.90
18506;DHT22;9382;53.242;10.438;2024-01-10T06:48:48;-8.20;99.90
18506;DHT22;9382;53.242;10.438;2024-01-10T06:51:16;-8.20;99.90
18506;DHT22;9382;53.242;10.438;2024-01-10T06:53:43;-8.20;99.90
18506;DHT22;9382;53.242;10.438;2024-01-10T06:56:18;-8.20;99.90
18506;DHT22;9382;53.242;10.438;2024-01-10T06:58:45;-8.20;99.90
18506;DHT22;9382;53.242;10.438;2024-01-10T07:01:14;-8.20;99.90
18506;DHT22;9382;53.242;10.438;2024-01-10T07:03:47;-8.20;99.90
18506;DHT22;9382;53.242;10.438;2024-01-10T07:06:14;-8.20;99.90
18506;DHT22;9382;53.242;10.438;2024-01-10T07:08:42;-8.20;99.90
18506;DHT22;9382;53.242;10.438;2024-01-10T07:11:11;-8.30;99.90
18506;DHT22;9382;53.242;10.438;2024-01-10T07:13:40;-8.30;99.90
18506;DHT22;9382;53.242;10.438;2024-01-10T07:16:11;-8.30;99.90
18506;DHT22;9382;53.242;10.438;2024-01-10T07:18:42;-8.30;99.90
18506;DHT22;9382;53.242;10.438;2024-01-10T07:21:14;-8.30;99.90
18506;DHT22;9382;53.242;10.438;2024-01-10T07:23:44;-8.30;99.90
18506;DHT22;9382;53.242;10.438;2024-01-10T07:26:16;-8.30;99.90
18506;DHT22;9382;53.242;10.438;2024-01-10T07:29:02;-8.30;99.90
18506;DHT22;9382;53.242;10.438;2024-01-10T07:31:36;-8.30;99.90
18506;DHT22;9382;53.242;10.438;2024-01-10T07:34:03;-8.40;99.90
18506;DHT22;9382;53.242;10.438;2024-01-10T07:36:44;-8.30;99.90
18506;DHT22;9382;53.242;10.438;2024-01-10T07:39:12;-8.30;99.90
18506;DHT22;9382;53.242;10.438;2024-01-10T07:41:48;-8.30;99.90
18506;DHT22;9382;53.242;10.438;2024-01-10T07:44:19;-8.30;99.90
18506;DHT22;9382;53.242;10.438;2024-01-10T07:46:51;-8.30;99.90
18506;DHT22;9382;53.242;10.438;2024-01-10T07:49:23;-8.30;99.90
18506;DHT22;9382;53.242;10.438;2024-01-10T07:51:55;-8.30;99.90
18506;DHT22;9382;53.242;10.438;2024-01-10T07:54:22;-8.30;99.90
18506;DHT22;9382;53.242;10.438;2024-01-10T07:56:49;-8.20;99.90
18506;DHT22;9382;53.242;10.438;2024-01-10T07:59:24;-8.20;99.90
18506;DHT22;9382;53.242;10.438;2024-01-10T08:01:55;-8.10;99.90
18506;DHT22;9382;53.242;10.438;2024-01-10T08:04:33;-8.10;99.90
18506;DHT22;9382;53.242;10.438;2024-01-10T08:07:02;-8.00;99.90
18506;DHT22;9382;53.242;10.438;2024-01-10T08:09:33;-7.80;99.90
18506;DHT22;9382;53.242;10.438;2024-01-10T08:12:00;-7.70;99.90
18506;DHT22;9382;53.242;10.438;2024-01-10T08:14:33;-7.70;99.90
18506;DHT22;9382;53.242;10.438;2024-01-10T08:17:05;-7.70;99.90
18506;DHT22;9382;53.242;10.438;2024-01-10T08:19:37;-7.60;99.90
18506;DHT22;9382;53.242;10.438;2024-01-10T08:22:10;-7.60;99.90
18506;DHT22;9382;53.242;10.438;2024-01-10T08:24:38;-7.50;99.90
18506;DHT22;9382;53.242;10.438;2024-01-10T08:27:08;-7.40;99.90
18506;DHT22;9382;53.242;10.438;2024-01-10T08:29:38;-7.30;99.90
18506;DHT22;9382;53.242;10.438;2024-01-10T08:32:09;-7.20;99.90
18506;DHT22;9382;53.242;10.438;2024-01-10T08:34:46;-7.20;99.90
18506;DHT22;9382;53.242;10.438;2024-01-10T08:37:14;-7.10;99.90
18506;DHT22;9382;53.242;10.438;2024-01-10T08:39:48;-7.00;99.90
18506;DHT22;9382;53.242;10.438;2024-01-10T08:42:16;-6.90;99.90
18506;DHT22;9382;53.242;10.438;2024-01-10T08:44:47;-6.80;99.90
18506;DHT22;9382;53.242;10.438;2024-01-10T08:47:17;-6.80;99.90
18506;DHT22;9382;53.242;10.438;2024-01-10T08:49:50;-6.70;99.90
18506;DHT22;9382;53.242;10.438;2024-01-10T08:52:19;-6.60;99.90
18506;DHT22;9382;53.242;10.438;2024-01-10T08:54:49;-6.50;99.90
18506;DHT22;9382;53.242;10.438;2024-01-10T08:57:18;-6.40;99.90
18506;DHT22;9382;53.242;10.438;2024-01-10T08:59:47;-6.10;99.90
18506;DHT22;9382;53.242;10.438;2024-01-10T09:02:14;-6.00;99.90
18506;DHT22;9382;53.242;10.438;2024-01-10T09:04:43;-5.80;99.90
18506;DHT22;9382;53.242;10.438;2024-01-10T09:07:15;-5.60;99.90
18506;DHT22;9382;53.242;10.438;2024-01-10T09:09:48;-5.50;99.90
18506;DHT22;9382;53.242;10.438;2024-01-10T09:12:16;-5.40;99.90
18506;DHT22;9382;53.242;10.438;2024-01-10T09:14:44;-5.20;99.90
18506;DHT22;9382;53.242;10.438;2024-01-10T09:17:12;-5.00;99.90
18506;DHT22;9382;53.242;10.438;2024-01-10T09:19:39;-4.90;99.90
18506;DHT22;9382;53.242;10.438;2024-01-10T09:22:06;-4.80;99.90
18506;DHT22;9382;53.242;10.438;2024-01-10T09:24:35;-4.70;99.90
18506;DHT22;9382;53.242;10.438;2024-01-10T09:27:03;-4.60;99.90
18506;DHT22;9382;53.242;10.438;2024-01-10T09:29:30;-4.40;99.90
18506;DHT22;9382;53.242;10.438;2024-01-10T09:31:59;-4.30;99.90
18506;DHT22;9382;53.242;10.438;2024-01-10T09:34:27;-4.10;99.90
18506;DHT22;9382;53.242;10.438;2024-01-10T09:36:56;-3.80;99.90
18506;DHT22;9382;53.242;10.438;2024-01-10T09:39:22;-3.70;99.90
18506;DHT22;9382;53.242;10.438;2024-01-10T09:41:49;-3.60;99.90
18506;DHT22;9382;53.242;10.438;2024-01-10T09:44:17;-3.40;99.90
18506;DHT22;9382;53.242;10.438;2024-01-10T09:46:47;-3.20;99.90
18506;DHT22;9382;53.242;10.438;2024-01-10T09:49:17;-3.20;99.90
18506;DHT22;9382;53.242;10.438;2024-01-10T09:51:48;-3.10;99.90
18506;DHT22;9382;53.242;10.438;2024-01-10T09:54:16;-3.10;99.90
18506;DHT22;9382;53.242;10.438;2024-01-10T09:56:45;-3.10;99.90
18506;DHT22;9382;53.242;10.438;2024-01-10T09:59:12;-3.20;99.90
18506;DHT22;9382;53.242;10.438;2024-01-10T10:01:39;-3.20;99.90
18506;DHT22;9382;53.242;10.438;2024-01-10T10:04:11;-3.10;99.90
18506;DHT22;9382;53.242;10.438;2024-01-10T10:06:38;-3.10;99.90
18506;DHT22;9382;53.242;10.438;2024-01-10T10:09:07;-3.10;99.90
18506;DHT22;9382;53.242;10.438;2024-01-10T10:11:34;-3.10;99.90
18506;DHT22;9382;53.242;10.438;2024-01-10T10:14:14;-3.00;99.90
18506;DHT22;9382;53.242;10.438;2024-01-10T10:16:44;-2.70;99.90
18506;DHT22;9382;53.242;10.438;2024-01-10T10:19:22;-2.50;99.90
18506;DHT22;9382;53.242;10.438;2024-01-10T10:21:49;-2.60;99.90
18506;DHT22;9382;53.242;10.438;2024-01-10T10:24:17;-2.50;99.90
18506;DHT22;9382;53.242;10.438;2024-01-10T10:26:44;-2.40;99.90
18506;DHT22;9382;53.242;10.438;2024-01-10T10:29:11;-2.20;99.90
18506;DHT22;9382;53.242;10.438;2024-01-10T10:31:38;-2.00;99.90
18506;DHT22;9382;53.242;10.438;2024-01-10T10:34:04;-1.80;99.90
18506;DHT22;9382;53.242;10.438;2024-01-10T10:36:31;-1.60;99.90
18506;DHT22;9382;53.242;10.438;2024-01-10T10:39:02;-1.60;99.90
18506;DHT22;9382;53.242;10.438;2024-01-10T10:41:33;-1.60;99.90
18506;DHT22;9382;53.242;10.438;2024-01-10T10:44:02;-1.60;99.90
18506;DHT22;9382;53.242;10.438;2024-01-10T10:46:32;-1.70;99.90
18506;DHT22;9382;53.242;10.438;2024-01-10T10:49:06;-1.50;99.90
18506;DHT22;9382;53.242;10.438;2024-01-10T10:51:34;-1.40;99.90
18506;DHT22;9382;53.242;10.438;2024-01-10T10:54:04;-1.30;99.90
18506;DHT22;9382;53.242;10.438;2024-01-10T10:56:33;-1.30;99.90
18506;DHT22;9382;53.242;10.438;2024-01-10T10:59:01;-1.40;99.90
18506;DHT22;9382;53.242;10.438;2024-01-10T11:01:29;-1.30;99.90
18506;DHT22;9382;53.242;10.438;2024-01-10T11:03:58;-1.40;99.90
18506;DHT22;9382;53.242;10.438;2024-01-10T11:06:24;-1.10;99.90
18506;DHT22;9382;53.242;10.438;2024-01-10T11:08:54;-0.90;99.90
18506;DHT22;9382;53.242;10.438;2024-01-10T11:11:34;-0.60;99.90
18506;DHT22;9382;53.242;10.438;2024-01-10T11:14:14;-0.70;99.90
18506;DHT22;9382;53.242;10.438;2024-01-10T11:17:01;-0.50;99.90
18506;DHT22;9382;53.242;10.438;2024-01-10T11:19:52;-0.30;99.90
18506;DHT22;9382;53.242;10.438;2024-01-10T11:22:37;-0.20;99.90
18506;DHT22;9382;53.242;10.438;2024-01-10T11:25:09;0.30;99.90
18506;DHT22;9382;53.242;10.438;2024-01-10T11:27:38;0.50;99.90
18506;DHT22;9382;53.242;10.438;2024-01-10T11:30:06;0.40;99.90
18506;DHT22;9382;53.242;10.438;2024-01-10T11:32:33;0.60;99.90
18506;DHT22;9382;53.242;10.438;2024-01-10T11:35:05;0.80;99.90
18506;DHT22;9382;53.242;10.438;2024-01-10T11:37:43;1.10;99.90
18506;DHT22;9382;53.242;10.438;2024-01-10T11:40:11;1.60;99.90
18506;DHT22;9382;53.242;10.438;2024-01-10T11:42:43;1.90;99.90
18506;DHT22;9382;53.242;10.438;2024-01-10T11:45:10;2.10;99.90
18506;DHT22;9382;53.242;10.438;2024-01-10T11:47:42;2.10;99.90
18506;DHT22;9382;53.242;10.438;2024-01-10T11:50:18;2.50;99.90
18506;DHT22;9382;53.242;10.438;2024-01-10T11:52:46;2.70;99.90
18506;DHT22;9382;53.242;10.438;2024-01-10T11:55:51;2.90;99.90
18506;DHT22;9382;53.242;10.438;2024-01-10T11:58:20;2.70;99.90
18506;DHT22;9382;53.242;10.438;2024-01-10T12:00:50;2.50;99.90
18506;DHT22;9382;53.242;10.438;2024-01-10T12:03:17;2.50;99.90
18506;DHT22;9382;53.242;10.438;2024-01-10T12:05:45;2.60;99.90
18506;DHT22;9382;53.242;10.438;2024-01-10T12:08:12;3.00;99.90
18506;DHT22;9382;53.242;10.438;2024-01-10T12:10:39;3.30;99.90
18506;DHT22;9382;53.242;10.438;2024-01-10T12:13:06;3.50;99.90
18506;DHT22;9382;53.242;10.438;2024-01-10T12:15:34;3.90;99.90
18506;DHT22;9382;53.242;10.438;2024-01-10T12:18:01;4.00;99.90
18506;DHT22;9382;53.242;10.438;2024-01-10T12:20:28;4.60;99.90
18506;DHT22;9382;53.242;10.438;2024-01-10T12:22:55;5.20;99.90
18506;DHT22;9382;53.242;10.438;2024-01-10T12:25:21;5.60;99.90
18506;DHT22;9382;53.242;10.438;2024-01-10T12:27:48;5.80;99.90
18506;DHT22;9382;53.242;10.438;2024-01-10T12:30:16;5.90;99.90
18506;DHT22;9382;53.242;10.438;2024-01-10T12:32:49;6.20;99.90
18506;DHT22;9382;53.242;10.438;2024-01-10T12:35:17;6.40;99.90
18506;DHT22;9382;53.242;10.438;2024-01-10T12:37:53;6.30;99.90
18506;DHT22;9382;53.242;10.438;2024-01-10T12:40:22;6.60;99.90
18506;DHT22;9382;53.242;10.438;2024-01-10T12:43:01;6.80;99.90
18506;DHT22;9382;53.242;10.438;2024-01-10T12:45:28;6.70;99.90
18506;DHT22;9382;53.242;10.438;2024-01-10T12:47:57;7.00;99.90
18506;DHT22;9382;53.242;10.438;2024-01-10T12:50:24;7.10;99.90
18506;DHT22;9382;53.242;10.438;2024-01-10T12:52:51;7.00;99.90
18506;DHT22;9382;53.242;10.438;2024-01-10T12:55:18;7.00;99.90
18506;DHT22;9382;53.242;10.438;2024-01-10T12:57:45;7.40;99.90
18506;DHT22;9382;53.242;10.438;2024-01-10T13:00:12;7.80;99.90
18506;DHT22;9382;53.242;10.438;2024-01-10T13:02:40;7.90;99.90
18506;DHT22;9382;53.242;10.438;2024-01-10T13:05:09;7.80;99.90
18506;DHT22;9382;53.242;10.438;2024-01-10T13:07:36;7.50;99.90
18506;DHT22;9382;53.242;10.438;2024-01-10T13:10:03;7.70;99.90
18506;DHT22;9382;53.242;10.438;2024-01-10T13:12:30;7.90;99.90
18506;DHT22;9382;53.242;10.438;2024-01-10T13:14:57;7.80;99.90
18506;DHT22;9382;53.242;10.438;2024-01-10T13:17:24;6.40;99.90
18506;DHT22;9382;53.242;10.438;2024-01-10T13:19:51;5.80;99.90
18506;DHT22;9382;53.242;10.438;2024-01-10T13:22:20;5.50;99.90
18506;DHT22;9382;53.242;10.438;2024-01-10T13:24:47;5.00;99.90
18506;DHT22;9382;53.242;10.438;2024-01-10T13:27:14;5.10;99.90
18506;DHT22;9382;53.242;10.438;2024-01-10T13:29:41;5.00;99.90
18506;DHT22;9382;53.242;10.438;2024-01-10T13:32:07;5.30;99.90
18506;DHT22;9382;53.242;10.438;2024-01-10T13:34:36;5.40;99.90
18506;DHT22;9382;53.242;10.438;2024-01-10T13:37:03;5.90;99.90
18506;DHT22;9382;53.242;10.438;2024-01-10T13:39:31;6.30;99.90
18506;DHT22;9382;53.242;10.438;2024-01-10T13:41:58;6.30;99.90
18506;DHT22;9382;53.242;10.438;2024-01-10T13:44:27;6.80;99.90
18506;DHT22;9382;53.242;10.438;2024-01-10T13:46:54;7.70;99.90
18506;DHT22;9382;53.242;10.438;2024-01-10T13:49:22;8.40;99.90
18506;DHT22;9382;53.242;10.438;2024-01-10T13:51:49;8.30;99.90
18506;DHT22;9382;53.242;10.438;2024-01-10T13:54:16;8.50;99.90
18506;DHT22;9382;53.242;10.438;2024-01-10T13:56:44;8.60;99.90
18506;DHT22;9382;53.242;10.438;2024-01-10T13:59:18;8.60;99.90
18506;DHT22;9382;53.242;10.438;2024-01-10T14:01:49;8.40;99.90
18506;DHT22;9382;53.242;10.438;2024-01-10T14:04:22;8.10;99.90
18506;DHT22;9382;53.242;10.438;2024-01-10T14:06:59;8.00;99.90
18506;DHT22;9382;53.242;10.438;2024-01-10T14:09:33;8.00;99.90
18506;DHT22;9382;53.242;10.438;2024-01-10T14:12:16;8.30;99.90
18506;DHT22;9382;53.242;10.438;2024-01-10T14:14:42;8.20;99.90
18506;DHT22;9382;53.242;10.438;2024-01-10T14:17:09;7.80;99.90
18506;DHT22;9382;53.242;10.438;2024-01-10T14:19:36;7.60;99.90
18506;DHT22;9382;53.242;10.438;2024-01-10T14:22:03;7.10;99.90
18506;DHT22;9382;53.242;10.438;2024-01-10T14:24:30;6.70;99.90
18506;DHT22;9382;53.242;10.438;2024-01-10T14:26:58;5.50;99.90
18506;DHT22;9382;53.242;10.438;2024-01-10T14:29:26;4.20;99.90
18506;DHT22;9382;53.242;10.438;2024-01-10T14:31:53;3.00;99.90
18506;DHT22;9382;53.242;10.438;2024-01-10T14:34:19;2.00;99.90
18506;DHT22;9382;53.242;10.438;2024-01-10T14:36:46;0.80;99.90
18506;DHT22;9382;53.242;10.438;2024-01-10T14:39:13;0.10;99.90
18506;DHT22;9382;53.242;10.438;2024-01-10T14:41:40;-0.50;99.90
18506;DHT22;9382;53.242;10.438;2024-01-10T14:44:07;-0.80;99.90
18506;DHT22;9382;53.242;10.438;2024-01-10T14:46:35;-1.20;99.90
18506;DHT22;9382;53.242;10.438;2024-01-10T14:49:03;-1.40;99.90
18506;DHT22;9382;53.242;10.438;2024-01-10T14:51:30;-1.70;99.90
18506;DHT22;9382;53.242;10.438;2024-01-10T14:53:58;-1.90;99.90
18506;DHT22;9382;53.242;10.438;2024-01-10T14:56:25;-2.00;99.90
18506;DHT22;9382;53.242;10.438;2024-01-10T14:58:52;-2.10;99.90
18506;DHT22;9382;53.242;10.438;2024-01-10T15:01:18;-2.30;99.90
18506;DHT22;9382;53.242;10.438;2024-01-10T15:03:47;-2.40;99.90
18506;DHT22;9382;53.242;10.438;2024-01-10T15:06:13;-2.60;99.90
18506;DHT22;9382;53.242;10.438;2024-01-10T15:08:41;-2.60;99.90
18506;DHT22;9382;53.242;10.438;2024-01-10T15:11:08;-2.70;99.90
18506;DHT22;9382;53.242;10.438;2024-01-10T15:13:36;-2.90;99.90
18506;DHT22;9382;53.242;10.438;2024-01-10T15:16:03;-3.00;99.90
18506;DHT22;9382;53.242;10.438;2024-01-10T15:18:30;-3.10;99.90
18506;DHT22;9382;53.242;10.438;2024-01-10T15:21:00;-3.20;99.90
18506;DHT22;9382;53.242;10.438;2024-01-10T15:23:26;-3.20;99.90
18506;DHT22;9382;53.242;10.438;2024-01-10T15:25:53;-3.20;99.90
18506;DHT22;9382;53.242;10.438;2024-01-10T15:28:20;-3.30;99.90
18506;DHT22;9382;53.242;10.438;2024-01-10T15:30:47;-3.30;99.90
18506;DHT22;9382;53.242;10.438;2024-01-10T15:33:14;-3.40;99.90
18506;DHT22;9382;53.242;10.438;2024-01-10T15:35:41;-3.60;99.90
18506;DHT22;9382;53.242;10.438;2024-01-10T15:38:09;-3.60;99.90
18506;DHT22;9382;53.242;10.438;2024-01-10T15:40:36;-3.70;99.90
18506;DHT22;9382;53.242;10.438;2024-01-10T15:43:03;-3.80;99.90
18506;DHT22;9382;53.242;10.438;2024-01-10T15:45:29;-3.80;99.90
18506;DHT22;9382;53.242;10.438;2024-01-10T15:47:57;-3.80;99.90
18506;DHT22;9382;53.242;10.438;2024-01-10T15:50:23;-3.90;99.90
18506;DHT22;9382;53.242;10.438;2024-01-10T15:52:50;-3.90;99.90